Time;durP1;ratioP1;P1;durP2;ratioP2;P2;SDS_P1;SDS_P2;PMS_P1;PMS_P2;Temp;Humidity;BMP_temperature;BMP_pressure;BME280_temperature;BME280_humidity;BME280_pressure;Samples;Min_cycle;Max_cycle;Signal;HPM_P1;HPM_P2
2023/04/07 00:02:08;;;;;;;11.70;10.03;;;2.00;65.50;;;1.81;62.05;97979.03;4978597;28;20468;-77
2023/04/07 00:04:35;;;;;;;10.87;9.03;;;2.00;65.80;;;1.95;61.85;97988.28;4978757;28;20458;-76
2023/04/07 00:07:02;;;;;;;12.80;9.37;;;2.00;65.90;;;1.92;61.45;97985.09;4986625;28;20460;-77
2023/04/07 00:09:31;;;;;;;14.63;9.73;;;1.90;66.00;;;1.83;61.93;97986.88;4984786;28;20480;-80
2023/04/07 00:12:00;;;;;;;14.10;10.00;;;1.90;66.00;;;1.73;62.24;97986.16;4970498;28;20868;-78
2023/04/07 00:14:28;;;;;;;15.93;10.27;;;1.80;66.30;;;1.56;62.88;97983.44;4988876;28;20545;-76
2023/04/07 00:16:55;;;;;;;11.53;9.13;;;1.70;66.80;;;1.58;63.04;97986.75;4976337;28;20521;-74
2023/04/07 00:19:22;;;;;;;11.10;8.93;;;1.70;67.10;;;1.57;62.95;97985.09;4975105;28;20472;-75
2023/04/07 00:21:50;;;;;;;12.73;10.73;;;1.60;67.30;;;1.66;62.60;97978.84;4971684;28;20852;-74
2023/04/07 00:24:17;;;;;;;14.00;10.70;;;1.60;67.30;;;1.60;62.86;97990.13;4992863;28;20540;-74
2023/04/07 00:26:45;;;;;;;12.93;10.03;;;1.60;67.80;;;1.64;62.87;97978.16;4992625;28;20519;-74
2023/04/07 00:29:13;;;;;;;12.27;9.23;;;1.60;67.90;;;1.65;63.07;97977.16;4988540;28;21100;-75
2023/04/07 00:31:40;;;;;;;11.70;9.70;;;1.60;68.00;;;1.53;63.18;97983.75;4972233;28;20449;-74
2023/04/07 00:34:07;;;;;;;13.23;9.20;;;1.50;68.70;;;1.59;62.96;97977.78;4974442;28;20980;-74
2023/04/07 00:36:34;;;;;;;10.63;9.30;;;1.50;68.80;;;1.57;63.14;97978.94;4991249;28;20938;-74
2023/04/07 00:39:01;;;;;;;13.43;9.23;;;1.50;69.00;;;1.51;63.23;97975.91;4976192;28;20492;-77
2023/04/07 00:41:29;;;;;;;10.73;9.47;;;1.50;68.70;;;1.40;63.66;97985.00;4990950;28;20456;-75
2023/04/07 00:43:57;;;;;;;11.07;9.97;;;1.40;69.00;;;1.42;63.64;97983.03;4991647;28;20462;-76
2023/04/07 00:46:24;;;;;;;11.10;9.70;;;1.20;69.50;;;1.40;63.55;97981.53;4974433;28;20786;-75
2023/04/07 00:48:52;;;;;;;11.73;9.63;;;1.20;69.90;;;1.28;63.98;97991.59;4993238;28;20460;-76
2023/04/07 00:51:21;;;;;;;14.70;9.83;;;1.10;70.30;;;1.41;63.94;97992.00;4986102;28;21140;-75
2023/04/07 00:53:49;;;;;;;18.10;10.10;;;1.10;70.80;;;1.63;62.74;97979.16;4990105;28;20482;-77
2023/04/07 00:56:17;;;;;;;11.37;10.27;;;1.30;70.20;;;1.76;62.54;97978.69;4974670;28;20461;-76
2023/04/07 00:58:44;;;;;;;15.70;9.60;;;1.50;69.90;;;1.69;62.17;97951.06;4991105;28;20914;-75
2023/04/07 01:01:19;;;;;;;11.87;9.67;;;1.60;69.80;;;1.78;62.75;97983.88;4989784;28;20461;-75
2023/04/07 01:03:54;;;;;;;11.57;9.20;;;1.60;69.60;;;1.60;63.50;97979.47;4970739;28;20452;-74
2023/04/07 01:06:28;;;;;;;11.53;9.57;;;1.50;69.90;;;1.91;62.41;97970.94;4967412;28;20601;-74
2023/04/07 01:09:05;;;;;;;11.90;10.40;;;1.70;69.90;;;2.07;62.08;97959.50;4996220;28;20444;-72
2023/04/07 01:11:39;;;;;;;13.00;10.00;;;2.00;69.10;;;2.13;62.30;97958.00;4988582;28;20456;-76
2023/04/07 01:14:07;;;;;;;15.27;9.73;;;2.20;69.00;;;2.23;62.12;97963.19;4995017;28;20464;-75
2023/04/07 01:16:42;;;;;;;12.13;10.60;;;2.20;69.30;;;2.01;62.55;97945.97;4995189;28;20452;-74
2023/04/07 01:19:16;;;;;;;14.33;10.47;;;2.30;69.00;;;2.15;62.24;97945.34;4991885;28;20475;-74
2023/04/07 01:21:44;;;;;;;10.87;9.17;;;2.40;68.80;;;2.33;61.96;97933.72;4990239;28;20446;-77
2023/04/07 01:24:55;;;;;;;15.57;10.63;;;2.40;68.80;;;2.50;61.91;97938.09;4986672;28;20470;-75
2023/04/07 01:27:38;;;;;;;10.10;8.40;;;2.40;68.80;;;2.52;60.99;97930.75;4983149;28;20464;-76
2023/04/07 01:30:12;;;;;;;12.80;9.73;;;2.50;68.60;;;2.70;61.20;97932.41;4981678;28;20466;-81
2023/04/07 01:32:41;;;;;;;12.17;9.80;;;2.60;68.40;;;2.75;60.74;97930.06;4988168;28;20546;-79
2023/04/07 01:35:13;;;;;;;12.40;10.47;;;2.70;68.10;;;2.79;60.25;97936.72;4989330;28;20526;-77
2023/04/07 01:37:41;;;;;;;13.63;10.37;;;2.80;67.30;;;2.91;59.15;97936.41;4989893;28;20475;-78
2023/04/07 01:40:10;;;;;;;12.20;9.90;;;2.90;66.40;;;3.04;58.54;97933.22;4987519;28;20483;-76
2023/04/07 01:42:39;;;;;;;12.90;10.40;;;3.10;65.80;;;3.00;58.56;97915.88;4991051;28;20542;-77
2023/04/07 01:45:10;;;;;;;11.83;10.27;;;3.10;65.20;;;3.11;58.03;97931.53;4984909;28;20450;-74
2023/04/07 01:47:37;;;;;;;14.40;10.97;;;3.20;64.80;;;2.98;58.06;97918.72;4972645;28;20464;-76
2023/04/07 01:50:08;;;;;;;13.80;10.63;;;3.20;64.30;;;2.96;58.11;97921.53;4958280;28;20458;-78
2023/04/07 01:52:36;;;;;;;13.60;10.73;;;3.20;64.20;;;2.89;57.88;97920.56;4982641;28;20548;-76
2023/04/07 01:55:04;;;;;;;14.40;10.70;;;3.20;64.10;;;3.03;57.75;97919.03;4971741;28;20456;-75
2023/04/07 01:57:31;;;;;;;14.93;9.93;;;3.10;64.00;;;3.14;57.65;97909.00;4987605;28;20465;-78
2023/04/07 01:59:59;;;;;;;16.23;9.90;;;3.10;64.00;;;2.73;57.63;97862.69;4989170;28;20474;-76
2023/04/07 02:02:28;;;;;;;13.33;10.27;;;3.10;64.00;;;2.86;58.38;97914.72;4985035;28;20524;-76
2023/04/07 02:04:59;;;;;;;14.33;10.10;;;3.00;64.20;;;2.78;58.57;97919.06;4985509;28;20452;-73
2023/04/07 02:07:34;;;;;;;12.93;10.77;;;3.00;64.20;;;2.89;58.09;97917.06;4986094;28;20468;-75
2023/04/07 02:10:05;;;;;;;13.20;10.77;;;2.90;64.10;;;2.84;58.27;97917.56;4966184;28;20480;-76
2023/04/07 02:12:35;;;;;;;15.90;11.00;;;2.90;64.10;;;2.76;58.42;97915.72;4969564;28;20455;-75
2023/04/07 02:15:04;;;;;;;13.63;11.00;;;2.80;63.90;;;2.53;57.98;97875.56;4988735;28;20576;-78
2023/04/07 02:17:35;;;;;;;15.77;10.77;;;2.80;63.60;;;2.31;57.87;97847.72;4963655;28;20441;-75
2023/04/07 02:20:03;;;;;;;12.50;10.47;;;2.80;63.80;;;2.79;58.67;97912.72;4971616;28;20472;-76
2023/04/07 02:22:30;;;;;;;13.83;10.27;;;2.80;64.10;;;2.51;58.14;97867.75;4986652;28;20529;-75
2023/04/07 02:24:57;;;;;;;13.63;10.47;;;2.80;64.00;;;2.66;59.09;97920.41;4984757;28;20458;-73
2023/04/07 02:27:25;;;;;;;17.03;11.17;;;2.80;64.30;;;2.52;58.46;97872.06;4986356;28;20456;-75
2023/04/07 02:29:53;;;;;;;15.13;11.53;;;2.70;64.50;;;2.63;59.11;97902.06;4987132;28;20459;-79
2023/04/07 02:32:20;;;;;;;13.70;10.77;;;2.60;65.00;;;2.51;59.61;97897.06;4984832;28;20544;-75
2023/04/07 02:34:49;;;;;;;15.20;11.00;;;2.60;64.80;;;2.28;60.20;97888.06;4986617;28;20464;-75
2023/04/07 02:37:16;;;;;;;13.17;11.70;;;2.60;65.20;;;2.33;60.29;97897.22;4986500;28;20465;-74
2023/04/07 02:39:45;;;;;;;13.87;10.20;;;2.40;65.40;;;2.19;60.59;97885.38;4989960;28;20477;-73
2023/04/07 02:42:12;;;;;;;12.80;10.13;;;2.40;65.80;;;2.24;60.73;97901.72;4981740;28;20934;-76
2023/04/07 02:44:39;;;;;;;13.03;10.97;;;2.30;66.00;;;2.20;60.83;97889.72;4984257;28;20459;-73
2023/04/07 02:47:07;;;;;;;14.33;10.70;;;2.30;66.10;;;1.85;61.09;97907.63;4967487;28;20460;-76
2023/04/07 02:49:34;;;;;;;13.27;10.80;;;2.20;65.90;;;1.77;61.29;97894.31;4982615;28;20524;-76
2023/04/07 02:52:02;;;;;;;15.77;11.50;;;2.10;65.90;;;1.89;61.42;97900.97;4962821;28;20462;-74
2023/04/07 02:54:30;;;;;;;14.17;10.60;;;2.00;66.30;;;1.87;61.63;97904.81;4979681;28;20467;-73
2023/04/07 02:56:57;;;;;;;14.23;10.03;;;2.00;66.90;;;1.76;61.47;97889.97;4977547;28;20474;-74
2023/04/07 02:59:24;;;;;;;14.93;11.70;;;1.80;66.80;;;1.82;62.33;97902.63;4989057;28;20456;-76
2023/04/07 03:01:52;;;;;;;13.80;11.17;;;1.80;67.40;;;1.86;62.28;97903.97;4988759;28;20442;-80
2023/04/07 03:04:19;;;;;;;14.37;11.80;;;1.80;67.70;;;1.80;62.12;97905.44;4966412;28;20464;-74
2023/04/07 03:06:46;;;;;;;19.10;11.60;;;1.80;67.70;;;1.83;62.25;97905.16;4990354;28;20991;-76
2023/04/07 03:09:15;;;;;;;15.13;11.20;;;1.70;67.90;;;1.87;62.33;97910.16;4990449;28;20508;-73
2023/04/07 03:11:43;;;;;;;14.70;10.97;;;1.80;68.30;;;1.84;62.43;97916.63;4987180;28;20513;-78
2023/04/07 03:14:10;;;;;;;12.70;11.00;;;1.70;68.30;;;1.83;62.40;97909.63;4988805;28;20460;-73
2023/04/07 03:16:38;;;;;;;13.23;11.00;;;1.60;68.70;;;1.87;62.48;97904.81;4965255;28;20457;-75
2023/04/07 03:19:05;;;;;;;12.53;10.63;;;1.80;68.80;;;1.84;62.09;97906.81;4987785;28;20469;-74
2023/04/07 03:21:33;;;;;;;14.80;10.57;;;1.80;68.50;;;1.98;62.32;97897.34;4985442;28;20479;-75
2023/04/07 03:24:00;;;;;;;11.83;10.00;;;1.80;68.60;;;1.86;62.40;97897.81;4976692;28;20452;-75
2023/04/07 03:26:29;;;;;;;16.10;11.67;;;1.90;68.60;;;1.78;62.41;97902.13;4987526;28;20453;-77
2023/04/07 03:28:56;;;;;;;14.70;11.10;;;1.90;68.10;;;1.72;62.93;97891.28;4974212;28;20809;-73
2023/04/07 03:31:24;;;;;;;16.67;11.00;;;1.90;68.30;;;1.76;63.01;97900.63;4954980;28;20985;-78
2023/04/07 03:33:51;;;;;;;14.53;11.33;;;1.90;68.50;;;1.83;62.76;97894.50;4978757;28;20492;-72
2023/04/07 03:36:20;;;;;;;15.30;10.90;;;1.90;68.50;;;1.82;62.88;97897.31;4989745;28;20464;-73
2023/04/07 03:38:48;;;;;;;16.10;11.70;;;1.90;68.60;;;1.93;62.62;97889.00;4989044;28;20460;-76
2023/04/07 03:41:15;;;;;;;13.20;10.13;;;1.90;68.70;;;1.96;62.43;97899.34;4969756;28;21028;-71
2023/04/07 03:43:44;;;;;;;13.60;11.40;;;1.90;68.70;;;1.97;62.35;97898.34;4976477;28;20457;-71
2023/04/07 03:46:11;;;;;;;12.30;11.00;;;1.90;68.80;;;1.89;62.53;97892.97;4983217;28;20449;-71
2023/04/07 03:48:38;;;;;;;14.90;11.50;;;2.00;68.30;;;1.92;62.81;97889.16;4990093;28;20487;-77
2023/04/07 03:51:06;;;;;;;13.00;11.67;;;2.10;68.50;;;1.91;62.88;97896.34;4989856;28;20448;-83
2023/04/07 03:53:33;;;;;;;17.47;11.57;;;2.10;68.50;;;1.82;63.39;97897.31;4975335;28;20450;-74
2023/04/07 03:56:00;;;;;;;15.77;12.03;;;2.10;68.80;;;1.95;63.15;97888.84;4990091;28;20550;-76
2023/04/07 03:58:28;;;;;;;13.37;11.20;;;2.10;68.80;;;2.09;62.92;97884.72;4988524;28;20460;-79
2023/04/07 04:00:56;;;;;;;13.53;11.30;;;2.20;68.80;;;2.12;63.17;97892.38;4970266;28;20471;-72
2023/04/07 04:03:25;;;;;;;10.93;9.83;;;2.20;69.10;;;2.08;62.74;97891.03;4986846;28;20456;-73
2023/04/07 04:05:52;;;;;;;16.53;11.40;;;2.20;69.00;;;1.95;62.73;97852.38;4989594;28;20969;-80
2023/04/07 04:08:20;;;;;;;13.33;10.93;;;2.20;69.00;;;2.14;62.79;97895.69;4984268;28;20468;-75
2023/04/07 04:10:47;;;;;;;14.10;11.20;;;2.20;68.90;;;2.15;62.82;97886.69;4990908;28;20457;-75
2023/04/07 04:13:15;;;;;;;14.17;11.27;;;2.20;69.10;;;2.16;63.05;97883.03;4989370;28;20477;-73
2023/04/07 04:15:42;;;;;;;11.73;10.43;;;2.20;69.10;;;2.17;62.31;97895.38;4969732;28;20440;-77
2023/04/07 04:18:11;;;;;;;13.33;11.07;;;2.20;68.80;;;2.24;62.66;97884.88;4991329;28;20470;-74
2023/04/07 04:20:39;;;;;;;12.10;10.33;;;2.30;69.00;;;2.20;62.76;97889.72;4985596;28;20531;-72
2023/04/07 04:23:06;;;;;;;12.60;10.20;;;2.20;68.90;;;2.15;62.58;97875.22;4986341;28;20458;-74
2023/04/07 04:25:33;;;;;;;12.17;10.40;;;2.30;69.00;;;2.24;62.64;97884.88;4985166;28;20466;-76
2023/04/07 04:28:00;;;;;;;12.67;10.77;;;2.30;69.00;;;2.20;62.66;97870.22;4968976;28;20460;-74
2023/04/07 04:30:28;;;;;;;18.13;12.30;;;2.30;68.90;;;2.11;63.37;97882.72;4967206;28;20440;-74
2023/04/07 04:32:56;;;;;;;14.87;11.17;;;2.30;69.20;;;2.00;63.88;97883.00;4990027;28;20934;-75
2023/04/07 04:35:24;;;;;;;14.67;11.43;;;2.20;69.70;;;2.06;63.70;97883.19;4956986;28;20460;-72
2023/04/07 04:37:51;;;;;;;12.77;11.40;;;2.30;69.30;;;2.08;63.61;97875.03;4963656;28;20480;-73
2023/04/07 04:40:19;;;;;;;13.77;11.00;;;2.30;69.20;;;2.16;63.32;97882.22;4974289;28;20525;-79
2023/04/07 04:42:46;;;;;;;13.40;12.00;;;2.30;69.20;;;2.13;63.47;97878.03;4978205;28;20463;-74
2023/04/07 04:45:13;;;;;;;12.67;11.07;;;2.40;69.20;;;2.00;63.97;97881.19;4960967;28;20449;-73
2023/04/07 04:47:42;;;;;;;15.87;11.20;;;2.30;69.20;;;2.02;63.84;97879.19;4988322;28;20454;-76
2023/04/07 04:50:10;;;;;;;12.70;10.63;;;2.30;69.20;;;1.96;64.19;97877.16;4979030;28;20453;-75
2023/04/07 04:52:39;;;;;;;11.50;10.30;;;2.30;69.20;;;2.10;63.38;97881.03;4969479;28;20457;-77
2023/04/07 04:55:08;;;;;;;13.73;11.83;;;2.40;69.20;;;1.87;64.10;97879.00;4991295;28;20508;-78
2023/04/07 04:57:35;;;;;;;13.43;11.47;;;2.30;68.90;;;2.07;63.78;97889.38;4967482;28;20529;-78
2023/04/07 05:00:04;;;;;;;14.57;11.00;;;2.40;69.10;;;2.38;62.77;97886.06;4984623;28;20467;-74
2023/04/07 05:02:31;;;;;;;12.33;10.87;;;2.60;69.00;;;2.52;62.30;97895.22;4991532;28;20542;-75
2023/04/07 05:05:00;;;;;;;15.03;11.37;;;2.80;68.50;;;2.75;60.48;97844.69;4970715;28;20520;-75
2023/04/07 05:07:27;;;;;;;12.83;11.40;;;3.20;67.60;;;3.30;59.80;97887.59;4991952;28;20486;-73
2023/04/07 05:09:55;;;;;;;14.17;11.40;;;3.60;66.70;;;3.29;59.60;97883.28;4986507;28;20508;-73
2023/04/07 05:12:22;;;;;;;11.67;10.47;;;3.70;65.90;;;3.48;58.84;97883.88;4969471;28;20464;-72
2023/04/07 05:14:50;;;;;;;11.33;10.23;;;3.80;65.60;;;3.48;59.01;97883.88;4975923;28;20450;-76
2023/04/07 05:17:17;;;;;;;11.70;10.50;;;3.90;65.40;;;3.65;58.76;97877.44;4993587;28;20458;-73
2023/04/07 05:19:44;;;;;;;11.90;9.63;;;4.10;64.50;;;4.02;57.36;97882.22;4992638;28;20925;-75
2023/04/07 05:22:12;;;;;;;14.07;10.43;;;4.30;63.90;;;3.81;57.46;97881.88;4991686;28;20957;-77
2023/04/07 05:24:39;;;;;;;12.27;11.07;;;4.40;63.00;;;3.81;57.66;97883.69;4971252;28;20452;-74
2023/04/07 05:27:08;;;;;;;12.40;10.90;;;4.40;62.90;;;4.06;57.12;97880.91;4985051;28;20513;-78
2023/04/07 05:29:35;;;;;;;16.87;11.50;;;4.50;62.90;;;3.84;57.66;97891.38;4992474;28;20478;-76
2023/04/07 05:32:06;;;;;;;12.40;11.00;;;4.50;62.10;;;3.77;57.57;97879.72;4991994;28;20451;-78
2023/04/07 05:34:34;;;;;;;14.73;11.50;;;4.40;62.00;;;3.82;57.50;97878.19;4973204;28;20462;-78
2023/04/07 05:37:02;;;;;;;16.83;11.00;;;4.20;62.20;;;3.91;57.10;97884.31;4981294;28;20965;-76
2023/04/07 05:39:29;;;;;;;14.53;10.30;;;4.20;62.70;;;3.74;56.88;97822.09;4966510;28;20803;-74
2023/04/07 05:41:57;;;;;;;13.33;10.23;;;4.30;62.50;;;3.98;56.70;97868.41;4968704;28;20498;-75
2023/04/07 05:44:25;;;;;;;13.57;10.70;;;4.20;62.50;;;4.28;56.62;97881.06;4983458;28;20463;-77
2023/04/07 05:46:53;;;;;;;12.40;9.83;;;4.30;62.80;;;4.11;56.01;97860.63;4980674;28;21260;-75
2023/04/07 05:49:20;;;;;;;14.97;11.20;;;4.30;62.20;;;4.02;56.54;97876.88;4986291;28;20602;-74
2023/04/07 05:51:48;;;;;;;14.33;10.60;;;4.20;62.00;;;4.05;56.90;97863.19;4989522;28;20448;-77
2023/04/07 05:54:15;;;;;;;13.30;11.60;;;4.30;61.70;;;4.07;55.54;97874.53;4987479;28;20442;-77
2023/04/07 05:56:42;;;;;;;14.97;11.47;;;4.40;60.70;;;2.72;56.03;97692.09;4984343;28;20541;-79
2023/04/07 05:59:09;;;;;;;12.97;11.60;;;4.20;61.00;;;4.30;55.89;97881.72;4991902;28;20935;-76
2023/04/07 06:01:38;;;;;;;14.67;11.20;;;4.40;61.30;;;4.70;54.66;97871.69;4988219;28;20483;-79
2023/04/07 06:04:06;;;;;;;12.60;10.53;;;4.60;61.60;;;4.40;53.86;97885.00;4991334;28;20458;-75
2023/04/07 06:06:33;;;;;;;14.00;11.40;;;4.70;59.40;;;4.24;54.33;97885.94;4968170;28;20527;-75
2023/04/07 06:09:00;;;;;;;14.87;10.97;;;4.60;59.60;;;4.22;55.11;97887.97;4991910;28;20850;-75
2023/04/07 06:11:28;;;;;;;13.87;12.23;;;4.50;59.70;;;4.23;55.53;97890.47;4989903;28;20466;-75
2023/04/07 06:13:55;;;;;;;13.57;12.13;;;4.50;59.70;;;4.46;54.41;97894.97;4988821;28;20535;-77
2023/04/07 06:16:22;;;;;;;14.50;12.13;;;4.60;59.80;;;4.51;54.14;97889.94;4988046;28;21027;-75
2023/04/07 06:18:51;;;;;;;13.90;12.07;;;4.80;59.20;;;4.40;54.66;97868.94;4973458;28;20908;-74
2023/04/07 06:21:18;;;;;;;13.20;11.80;;;4.80;59.30;;;4.88;54.61;97883.91;4986570;28;20760;-77
2023/04/07 06:23:45;;;;;;;14.80;11.00;;;4.90;59.50;;;5.19;53.67;97872.22;4971693;28;20809;-76
2023/04/07 06:26:13;;;;;;;18.47;11.10;;;5.10;59.40;;;4.87;53.45;97868.88;4988725;28;20457;-76
2023/04/07 06:28:40;;;;;;;19.20;11.97;;;5.20;58.90;;;4.81;53.32;97860.56;4976666;28;20464;-74
2023/04/07 06:31:08;;;;;;;13.53;12.20;;;5.20;58.20;;;4.77;53.75;97874.50;4973006;28;20755;-72
2023/04/07 06:33:35;;;;;;;16.17;11.40;;;5.20;58.20;;;4.98;53.45;97889.84;4956615;28;20466;-76
2023/04/07 06:36:04;;;;;;;12.40;11.10;;;5.20;58.30;;;5.37;52.65;97877.22;4976847;28;20458;-75
2023/04/07 06:38:31;;;;;;;15.93;11.30;;;5.40;57.90;;;5.01;52.90;97822.53;4977352;28;20469;-77
2023/04/07 06:40:58;;;;;;;12.80;10.70;;;5.40;57.60;;;5.44;51.97;97882.66;4980405;28;21191;-75
2023/04/07 06:43:25;;;;;;;16.37;12.50;;;5.50;57.30;;;6.37;49.97;97882.09;4985141;28;20459;-77
2023/04/07 06:45:53;;;;;;;14.90;12.27;;;6.00;57.40;;;6.40;49.98;97881.72;4962817;28;20770;-72
2023/04/07 06:48:20;;;;;;;13.17;11.40;;;6.30;56.30;;;6.36;50.20;97883.13;4986151;28;20471;-74
2023/04/07 06:50:49;;;;;;;13.00;11.40;;;6.30;56.10;;;6.22;50.14;97874.13;4985422;28;20526;-76
2023/04/07 06:53:18;;;;;;;15.97;12.30;;;6.40;55.80;;;6.28;51.65;97867.97;4981804;28;20451;-73
2023/04/07 06:55:46;;;;;;;13.10;11.70;;;6.30;56.40;;;6.84;54.42;97868.25;4968521;28;20479;-76
2023/04/07 06:58:13;;;;;;;14.37;11.50;;;6.70;59.90;;;6.57;49.44;97873.41;4971001;28;20573;-75
2023/04/07 07:00:40;;;;;;;13.57;12.17;;;6.80;56.00;;;6.62;49.98;97865.63;4983697;28;20502;-75
2023/04/07 07:03:07;;;;;;;13.37;11.70;;;6.90;56.20;;;6.86;51.13;97867.03;4982051;28;20484;-75
2023/04/07 07:05:34;;;;;;;14.60;11.20;;;6.80;57.00;;;6.93;49.19;97873.28;4969227;28;20781;-72
2023/04/07 07:08:02;;;;;;;13.90;12.40;;;6.80;55.00;;;7.04;48.43;97860.34;4983490;28;20450;-76
2023/04/07 07:10:31;;;;;;;13.20;11.90;;;7.20;54.50;;;7.31;47.77;97847.06;4982907;28;20781;-74
2023/04/07 07:12:58;;;;;;;13.20;11.80;;;7.20;54.00;;;7.39;47.27;97846.88;4984854;28;20467;-76
2023/04/07 07:15:25;;;;;;;14.57;12.97;;;7.40;53.60;;;7.92;46.66;97864.28;4967063;28;20452;-76
2023/04/07 07:17:52;;;;;;;15.30;12.83;;;7.70;53.00;;;8.08;45.67;97863.91;4982431;28;20539;-73
2023/04/07 07:20:22;;;;;;;15.47;12.20;;;7.90;52.20;;;8.23;44.77;97860.22;4982910;28;20999;-74
2023/04/07 07:22:49;;;;;;;13.00;11.60;;;8.00;51.60;;;8.52;44.19;97857.38;4979377;28;20553;-72
2023/04/07 07:25:17;;;;;;;11.70;10.50;;;8.30;51.50;;;8.55;43.88;97865.03;4979897;28;20524;-74
2023/04/07 07:27:45;;;;;;;13.63;12.23;;;8.40;50.70;;;8.78;43.57;97873.56;4982455;28;20528;-74
2023/04/07 07:30:13;;;;;;;12.73;11.37;;;8.50;50.10;;;8.73;42.70;97872.53;4985114;28;20518;-72
2023/04/07 07:32:40;;;;;;;14.20;12.47;;;8.60;49.50;;;8.78;42.98;97873.56;4988081;28;20448;-73
2023/04/07 07:35:08;;;;;;;14.13;12.63;;;8.60;49.60;;;8.49;42.93;97854.03;4969710;28;20525;-73
2023/04/07 07:37:35;;;;;;;14.47;12.37;;;8.60;49.20;;;8.35;43.92;97880.13;4979816;28;20451;-76
2023/04/07 07:40:03;;;;;;;13.23;11.87;;;8.50;49.20;;;8.33;44.65;97875.97;4983363;28;20831;-75
2023/04/07 07:42:31;;;;;;;16.07;12.90;;;8.50;49.20;;;8.62;44.14;97873.97;4975494;28;20579;-74
2023/04/07 07:44:59;;;;;;;16.40;13.03;;;8.50;49.60;;;8.84;44.24;97871.91;4982061;28;20511;-73
2023/04/07 07:47:27;;;;;;;16.07;13.17;;;8.60;49.50;;;9.06;43.56;97877.91;4980675;28;20991;-76
2023/04/07 07:49:54;;;;;;;15.23;12.30;;;8.90;49.30;;;9.25;42.84;97875.38;4980996;28;20488;-78
2023/04/07 07:52:22;;;;;;;16.53;12.83;;;9.20;48.80;;;9.67;41.54;97868.84;4963669;28;20452;-79
2023/04/07 07:54:49;;;;;;;14.40;12.90;;;9.40;48.40;;;8.93;42.52;97872.53;4980113;28;20452;-76
2023/04/07 07:57:17;;;;;;;13.73;12.33;;;9.20;47.80;;;9.38;42.00;97871.81;4976617;28;20445;-74
2023/04/07 07:59:45;;;;;;;15.93;11.87;;;9.20;47.60;;;9.77;40.85;97864.63;4980967;28;20534;-77
2023/04/07 08:02:14;;;;;;;17.83;12.07;;;9.50;47.30;;;9.97;40.61;97849.41;4983220;28;20571;-78
2023/04/07 08:04:41;;;;;;;14.20;12.63;;;9.70;47.20;;;10.17;40.19;97863.63;4971092;28;20460;-78
2023/04/07 08:07:10;;;;;;;14.27;12.77;;;9.90;46.90;;;10.05;40.50;97857.25;4984455;28;20465;-76
2023/04/07 08:09:37;;;;;;;13.70;11.77;;;10.00;45.90;;;10.27;40.67;97856.91;4985930;28;20539;-77
2023/04/07 08:12:04;;;;;;;16.63;12.80;;;10.10;45.90;;;9.75;41.58;97855.94;4987141;28;20467;-76
2023/04/07 08:14:32;;;;;;;14.00;12.60;;;9.90;46.80;;;9.85;41.43;97839.28;4981231;28;20456;-76
2023/04/07 08:16:59;;;;;;;12.97;10.97;;;9.90;46.80;;;10.36;41.41;97861.00;4985423;28;20902;-77
2023/04/07 08:19:27;;;;;;;11.97;10.67;;;10.10;46.20;;;10.17;41.16;97860.91;4978495;28;20471;-77
2023/04/07 08:21:55;;;;;;;14.53;11.53;;;10.10;46.20;;;10.59;41.04;97859.63;4981066;28;20510;-77
2023/04/07 08:24:22;;;;;;;11.53;9.40;;;10.30;46.80;;;10.35;42.11;97853.94;4982625;28;21705;-77
2023/04/07 08:26:49;;;;;;;12.43;9.97;;;10.40;46.30;;;10.49;41.76;97855.53;4964675;28;20456;-77
2023/04/07 08:29:17;;;;;;;11.70;10.50;;;10.50;46.40;;;11.06;40.65;97851.13;4985185;28;20724;-77
2023/04/07 08:31:44;;;;;;;15.30;11.23;;;10.70;46.30;;;10.87;40.96;97855.69;4969333;28;20465;-77
2023/04/07 08:34:12;;;;;;;12.87;10.60;;;10.80;46.40;;;11.03;42.42;97851.56;4984644;28;20483;-77
2023/04/07 08:36:41;;;;;;;13.77;10.57;;;10.90;47.50;;;11.27;41.80;97846.34;4965478;28;20469;-77
2023/04/07 08:39:08;;;;;;;15.63;10.30;;;11.10;47.60;;;10.33;42.93;97858.75;4985529;28;20460;-78
2023/04/07 08:41:39;;;;;;;12.30;10.77;;;10.60;47.10;;;10.70;42.38;97850.84;4968885;28;20826;-78
2023/04/07 08:44:08;;;;;;;14.33;11.20;;;10.50;47.20;;;11.55;41.48;97845.81;4988768;28;20456;-80
2023/04/07 08:46:38;;;;;;;12.17;10.97;;;11.00;48.00;;;11.97;40.89;97850.50;4987585;28;20484;-77
2023/04/07 08:49:10;;;;;;;11.53;10.33;;;11.50;47.40;;;11.97;40.78;97847.00;4962959;28;20451;-75
2023/04/07 08:51:44;;;;;;;11.00;10.00;;;11.80;47.00;;;12.13;39.73;97845.53;4981364;28;20450;-80
2023/04/07 08:54:13;;;;;;;12.47;11.17;;;11.90;46.20;;;11.52;40.26;97854.41;4977689;28;20480;-76
2023/04/07 08:56:43;;;;;;;12.57;11.27;;;11.70;45.60;;;11.56;40.85;97849.38;4975176;28;20465;-77
2023/04/07 08:59:13;;;;;;;11.47;10.33;;;11.50;45.90;;;12.66;38.60;97857.50;4979470;28;20486;-78
2023/04/07 09:01:41;;;;;;;12.67;11.37;;;12.10;45.80;;;12.61;38.55;97850.06;4964821;28;20464;-77
2023/04/07 09:04:10;;;;;;;13.23;11.63;;;12.40;45.40;;;12.89;37.68;97853.16;4975515;28;20469;-76
2023/04/07 09:06:38;;;;;;;12.30;10.70;;;12.50;45.00;;;13.27;38.04;97860.00;4975559;28;20476;-77
2023/04/07 09:09:07;;;;;;;13.43;10.97;;;12.80;45.40;;;13.53;37.51;97846.19;4979585;28;21106;-76
2023/04/07 09:11:37;;;;;;;13.13;10.50;;;13.10;45.00;;;13.31;37.40;97842.19;4981320;28;20473;-76
2023/04/07 09:14:04;;;;;;;12.83;11.30;;;13.00;44.60;;;13.43;37.05;97846.78;4986959;28;20453;-77
2023/04/07 09:16:32;;;;;;;11.27;10.07;;;13.20;44.60;;;13.43;37.27;97846.78;4978254;28;20506;-76
2023/04/07 09:19:02;;;;;;;12.93;10.80;;;13.20;44.60;;;12.92;37.28;97851.88;4965468;28;20955;-77
2023/04/07 09:21:48;;;;;;;13.77;12.23;;;12.90;43.90;;;13.08;37.57;97844.91;4979002;28;20461;-78
2023/04/07 09:24:25;;;;;;;13.53;10.70;;;12.90;44.30;;;12.55;37.44;97850.16;4985967;28;20556;-77
2023/04/07 09:27:12;;;;;;;15.20;12.40;;;12.60;43.30;;;12.33;37.93;97837.13;4967055;28;20461;-77
2023/04/07 09:29:42;;;;;;;14.73;12.03;;;12.40;43.50;;;12.75;37.84;97850.66;4970612;28;20902;-77
2023/04/07 09:32:11;;;;;;;16.37;12.50;;;12.40;44.00;;;12.55;38.31;97848.25;4982872;28;20460;-77
2023/04/07 09:34:40;;;;;;;12.60;11.40;;;12.40;44.00;;;12.39;38.24;97833.50;4967737;28;20520;-77
2023/04/07 09:37:09;;;;;;;11.90;10.60;;;12.50;44.20;;;12.07;39.14;97841.91;4950670;28;21259;-77
2023/04/07 09:39:51;;;;;;;12.60;10.90;;;12.20;44.00;;;11.77;40.14;97838.06;4985048;28;20523;-78
2023/04/07 09:42:19;;;;;;;13.00;11.63;;;11.90;44.40;;;11.66;40.11;97843.44;4980044;28;20481;-77
2023/04/07 09:44:46;;;;;;;13.90;11.27;;;11.60;44.30;;;12.19;39.19;97845.44;4977578;28;20457;-78
2023/04/07 09:47:14;;;;;;;12.40;11.20;;;11.70;44.50;;;11.90;39.82;97837.09;4989046;28;21201;-78
2023/04/07 09:49:52;;;;;;;13.73;11.03;;;11.90;44.70;;;12.41;39.58;97834.09;4990386;28;20448;-78
2023/04/07 09:52:25;;;;;;;13.00;11.70;;;12.00;44.90;;;11.27;41.68;97830.13;4981480;28;20968;-78
2023/04/07 09:54:55;;;;;;;14.00;12.50;;;11.70;44.60;;;11.96;40.41;97820.97;4964111;28;20548;-78
2023/04/07 09:57:23;;;;;;;13.40;12.00;;;11.80;45.00;;;12.11;39.91;97832.25;4983135;28;20504;-78
2023/04/07 09:59:53;;;;;;;12.73;11.30;;;12.00;45.00;;;11.84;40.72;97826.34;4970227;28;20461;-78
2023/04/07 10:02:20;;;;;;;13.87;12.37;;;11.80;44.60;;;12.02;40.21;97818.22;4968802;28;20472;-73
2023/04/07 10:04:47;;;;;;;12.50;11.00;;;11.90;45.10;;;12.23;39.82;97828.75;4980757;28;20614;-74
2023/04/07 10:07:15;;;;;;;13.40;12.00;;;12.00;44.80;;;12.10;40.48;97824.34;4979316;28;20482;-76
2023/04/07 10:09:43;;;;;;;14.77;11.90;;;12.00;45.00;;;11.91;40.44;97824.38;4970554;28;20627;-76
2023/04/07 10:12:12;;;;;;;12.70;11.40;;;11.90;44.90;;;11.90;40.98;97825.41;4984489;28;20463;-78
2023/04/07 10:14:45;;;;;;;13.13;11.40;;;11.70;45.00;;;11.52;41.43;97827.34;4988554;28;20449;-77
2023/04/07 10:17:18;;;;;;;13.20;11.90;;;11.60;45.10;;;11.54;40.95;97811.72;4986278;28;20535;-76
2023/04/07 10:19:47;;;;;;;14.13;12.67;;;11.50;45.10;;;11.82;40.71;97821.16;4980181;28;20467;-76
2023/04/07 10:22:15;;;;;;;14.10;11.87;;;11.60;45.30;;;11.57;41.09;97826.66;4965245;28;21873;-76
2023/04/07 10:24:52;;;;;;;13.77;12.37;;;11.50;45.20;;;11.66;41.22;97809.06;4976285;28;20461;-80